Time;durP1;ratioP1;P1;durP2;ratioP2;P2;SDS_P1;SDS_P2;PMS_P1;PMS_P2;Temp;Humidity;BMP_temperature;BMP_pressure;BME280_temperature;BME280_humidity;BME280_pressure;Samples;Min_cycle;Max_cycle;Signal;HPM_P1;HPM_P2
2023/09/22 00:01:46;;;;;;;1.52;0.57;;;16.70;99.90;;;;;;5042628;28;20062;-32
2023/09/22 00:04:12;;;;;;;0.80;0.40;;;16.70;99.90;;;;;;5043030;28;20072;-40
2023/09/22 00:06:38;;;;;;;0.40;0.40;;;16.70;99.90;;;;;;5045294;28;20068;-39
2023/09/22 00:09:09;;;;;;;0.65;0.40;;;16.60;99.90;;;;;;5044958;28;20029;-38
2023/09/22 00:11:36;;;;;;;0.52;0.43;;;16.60;99.90;;;;;;5044408;28;20029;-40
2023/09/22 00:14:01;;;;;;;0.35;0.35;;;16.60;99.90;;;;;;5043598;28;20033;-38
2023/09/22 00:16:27;;;;;;;0.45;0.45;;;16.60;99.90;;;;;;5038744;28;20040;-34
2023/09/22 00:18:53;;;;;;;1.00;0.60;;;16.60;99.90;;;;;;5045495;28;20029;-40
2023/09/22 00:21:19;;;;;;;0.77;0.40;;;16.60;99.90;;;;;;5042303;28;20033;-40
2023/09/22 00:23:45;;;;;;;0.40;0.40;;;16.60;99.90;;;;;;5045265;28;20025;-40
2023/09/22 00:26:10;;;;;;;0.75;0.50;;;16.50;99.90;;;;;;5043899;28;20029;-32
2023/09/22 00:28:36;;;;;;;0.57;0.57;;;16.50;99.90;;;;;;5040296;28;20030;-40
2023/09/22 00:31:01;;;;;;;0.50;0.50;;;16.40;99.90;;;;;;5043889;28;20032;-39
2023/09/22 00:33:30;;;;;;;0.65;0.60;;;16.30;99.90;;;;;;5041152;28;20025;-31
2023/09/22 00:36:01;;;;;;;0.85;0.43;;;16.30;99.90;;;;;;5045287;28;20028;-33
2023/09/22 00:38:27;;;;;;;0.40;0.40;;;16.30;99.90;;;;;;5040999;28;20415;-30
2023/09/22 00:40:52;;;;;;;1.77;0.55;;;16.20;99.90;;;;;;5042057;28;20034;-33
2023/09/22 00:43:18;;;;;;;1.10;0.60;;;16.20;99.90;;;;;;5047604;28;20025;-30
2023/09/22 00:45:47;;;;;;;0.43;0.43;;;16.20;99.90;;;;;;5045468;28;20116;-30
2023/09/22 00:48:22;;;;;;;0.65;0.50;;;16.10;99.90;;;;;;5045181;28;20039;-30
2023/09/22 00:50:49;;;;;;;1.08;0.50;;;16.10;99.90;;;;;;5046471;28;20062;-33
2023/09/22 00:53:16;;;;;;;0.77;0.40;;;16.20;99.90;;;;;;5045105;28;20190;-30
2023/09/22 00:55:42;;;;;;;0.50;0.50;;;16.10;99.90;;;;;;5050718;28;20029;-30
2023/09/22 00:58:08;;;;;;;0.50;0.50;;;16.10;99.90;;;;;;5046543;28;20399;-31
2023/09/22 01:00:34;;;;;;;1.23;0.57;;;16.10;99.90;;;;;;5049797;28;20036;-31
2023/09/22 01:03:00;;;;;;;2.67;0.75;;;16.10;99.90;;;;;;5044490;28;20025;-32
2023/09/22 01:05:26;;;;;;;0.55;0.55;;;16.10;99.90;;;;;;5047622;28;20032;-32
2023/09/22 01:07:52;;;;;;;0.75;0.38;;;16.10;99.90;;;;;;5050170;28;20036;-30
2023/09/22 01:10:18;;;;;;;0.57;0.52;;;16.10;99.90;;;;;;5045787;28;20032;-31
2023/09/22 01:12:43;;;;;;;2.05;0.47;;;16.00;99.90;;;;;;5041815;28;20079;-33
2023/09/22 01:15:09;;;;;;;0.32;0.32;;;15.90;99.90;;;;;;5043382;28;20075;-38
2023/09/22 01:17:35;;;;;;;1.35;0.40;;;15.90;99.90;;;;;;5046322;28;20025;-33
2023/09/22 01:20:07;;;;;;;0.85;0.50;;;15.90;99.90;;;;;;5047799;28;20017;-32
2023/09/22 01:22:33;;;;;;;0.38;0.38;;;16.00;99.90;;;;;;5049186;28;20035;-32
2023/09/22 01:24:59;;;;;;;1.17;0.50;;;16.00;99.90;;;;;;5047006;28;20079;-34
2023/09/22 01:27:25;;;;;;;1.00;0.52;;;16.00;99.90;;;;;;5045533;28;20114;-32
2023/09/22 01:29:50;;;;;;;0.50;0.40;;;16.00;99.90;;;;;;5047297;28;20139;-33
2023/09/22 01:32:16;;;;;;;1.35;0.40;;;15.90;99.90;;;;;;5042544;28;20049;-33
2023/09/22 01:34:41;;;;;;;0.38;0.38;;;15.90;99.90;;;;;;5047135;28;20032;-32
2023/09/22 01:37:07;;;;;;;0.93;0.43;;;15.90;99.90;;;;;;5045348;28;20037;-32
2023/09/22 01:39:36;;;;;;;0.63;0.45;;;15.90;99.90;;;;;;5050201;28;20024;-33
2023/09/22 01:42:02;;;;;;;0.52;0.50;;;15.80;99.90;;;;;;5046549;28;20051;-34
2023/09/22 01:44:27;;;;;;;0.38;0.38;;;15.80;99.90;;;;;;5045797;28;20053;-38
2023/09/22 01:46:54;;;;;;;0.40;0.40;;;15.80;99.90;;;;;;5048176;28;20081;-40
2023/09/22 01:49:19;;;;;;;0.47;0.47;;;15.90;99.90;;;;;;5046777;28;20060;-41
2023/09/22 01:51:45;;;;;;;0.60;0.60;;;15.90;99.90;;;;;;5045973;28;20090;-44
2023/09/22 01:54:11;;;;;;;0.40;0.40;;;15.80;99.90;;;;;;5048136;28;20498;-40
2023/09/22 01:56:36;;;;;;;1.60;0.50;;;15.80;99.90;;;;;;5048460;28;20056;-41
2023/09/22 01:59:03;;;;;;;0.45;0.45;;;15.80;99.90;;;;;;5047506;28;20021;-40
2023/09/22 02:01:28;;;;;;;0.65;0.65;;;15.70;99.90;;;;;;5047056;28;20091;-41
2023/09/22 02:03:54;;;;;;;0.77;0.77;;;15.70;99.90;;;;;;5046534;28;20027;-41
2023/09/22 02:06:19;;;;;;;0.50;0.50;;;15.70;99.90;;;;;;5046628;28;20155;-40
2023/09/22 02:08:45;;;;;;;0.82;0.50;;;15.70;99.90;;;;;;5044529;28;20403;-41
2023/09/22 02:11:11;;;;;;;0.30;0.30;;;15.70;99.90;;;;;;5042558;28;20076;-37
2023/09/22 02:13:38;;;;;;;0.68;0.60;;;15.70;99.90;;;;;;5047918;28;20029;-41
2023/09/22 02:16:04;;;;;;;0.75;0.60;;;15.60;99.90;;;;;;5046309;28;20029;-39
2023/09/22 02:18:29;;;;;;;1.08;0.70;;;15.50;99.90;;;;;;5046663;28;20680;-40
2023/09/22 02:20:56;;;;;;;1.08;0.65;;;15.60;99.90;;;;;;5043820;28;20025;-33
2023/09/22 02:23:22;;;;;;;2.25;0.63;;;15.50;99.90;;;;;;5047013;28;20474;-30
2023/09/22 02:25:47;;;;;;;0.77;0.77;;;15.50;99.90;;;;;;5047793;28;20095;-34
2023/09/22 02:28:13;;;;;;;0.60;0.60;;;15.50;99.90;;;;;;5046469;28;20037;-36
2023/09/22 02:30:39;;;;;;;1.02;0.60;;;15.50;99.90;;;;;;5045214;28;20029;-33
2023/09/22 02:33:04;;;;;;;0.70;0.70;;;15.50;99.90;;;;;;5046766;28;20112;-32
2023/09/22 02:35:30;;;;;;;0.50;0.50;;;15.50;99.90;;;;;;5046684;28;20025;-32
2023/09/22 02:37:55;;;;;;;1.88;0.82;;;15.50;99.90;;;;;;5047225;28;20079;-34
2023/09/22 02:40:21;;;;;;;1.92;0.80;;;15.60;99.90;;;;;;5047664;28;20025;-33
2023/09/22 02:42:47;;;;;;;1.45;0.60;;;15.50;99.90;;;;;;5046480;28;20017;-34
2023/09/22 02:45:13;;;;;;;0.50;0.50;;;15.40;99.90;;;;;;5043212;28;20052;-33
2023/09/22 02:47:40;;;;;;;0.70;0.70;;;15.40;99.90;;;;;;5047525;28;20100;-34
2023/09/22 02:50:10;;;;;;;0.70;0.70;;;15.40;99.90;;;;;;5043967;28;20132;-35
2023/09/22 02:52:39;;;;;;;0.82;0.70;;;15.40;99.90;;;;;;5044616;28;20042;-34
2023/09/22 02:55:09;;;;;;;0.82;0.73;;;15.50;99.90;;;;;;5039546;28;20036;-30
2023/09/22 02:57:38;;;;;;;0.50;0.50;;;15.40;99.90;;;;;;5047175;28;20358;-30
2023/09/22 03:00:20;;;;;;;0.60;0.60;;;15.40;99.90;;;;;;5046937;28;20029;-31
2023/09/22 03:02:49;;;;;;;1.15;0.88;;;15.30;99.90;;;;;;5041466;28;20064;-30
2023/09/22 03:05:16;;;;;;;0.63;0.63;;;15.30;99.90;;;;;;5043769;28;20053;-30
2023/09/22 03:07:42;;;;;;;0.73;0.73;;;15.30;99.90;;;;;;5047944;28;20032;-30
2023/09/22 03:10:10;;;;;;;0.70;0.70;;;15.30;99.90;;;;;;5046804;28;20041;-32
2023/09/22 03:12:37;;;;;;;0.77;0.70;;;15.30;99.90;;;;;;5042756;28;20094;-31
2023/09/22 03:15:04;;;;;;;1.15;0.68;;;15.30;99.90;;;;;;5046256;28;20061;-30
2023/09/22 03:17:30;;;;;;;0.55;0.55;;;15.30;99.90;;;;;;5046182;28;20033;-30
2023/09/22 03:19:59;;;;;;;1.20;0.75;;;15.30;99.90;;;;;;5047057;28;20048;-36
2023/09/22 03:22:27;;;;;;;1.27;0.60;;;15.30;99.90;;;;;;5044481;28;20025;-31
2023/09/22 03:24:53;;;;;;;0.80;0.80;;;15.20;99.90;;;;;;5043750;28;20032;-30
2023/09/22 03:27:19;;;;;;;0.70;0.70;;;15.30;99.90;;;;;;5043246;28;20386;-33
2023/09/22 03:29:45;;;;;;;0.90;0.70;;;15.30;99.90;;;;;;5045424;28;20041;-30
2023/09/22 03:32:11;;;;;;;0.75;0.75;;;15.10;99.90;;;;;;5029905;28;20052;-37
2023/09/22 03:34:37;;;;;;;2.15;1.00;;;15.10;99.90;;;;;;5027783;28;20506;-33
2023/09/22 03:37:09;;;;;;;0.93;0.80;;;15.10;99.90;;;;;;5024284;28;20136;-31
2023/09/22 03:39:35;;;;;;;1.40;0.70;;;15.10;99.90;;;;;;5022323;28;20029;-33
2023/09/22 03:42:01;;;;;;;0.60;0.60;;;15.10;99.90;;;;;;5024543;28;20475;-34
2023/09/22 03:44:27;;;;;;;1.65;1.00;;;15.00;99.90;;;;;;5028979;28;20053;-31
2023/09/22 03:46:53;;;;;;;1.85;1.10;;;15.10;99.90;;;;;;5027225;28;20033;-30
2023/09/22 03:49:19;;;;;;;1.73;0.70;;;15.00;99.90;;;;;;5026705;28;20086;-30
2023/09/22 03:51:45;;;;;;;1.75;0.65;;;15.00;99.90;;;;;;5053883;28;20026;-30
2023/09/22 03:54:10;;;;;;;0.75;0.70;;;15.00;99.90;;;;;;5030525;28;20508;-34
2023/09/22 03:56:39;;;;;;;0.63;0.63;;;15.00;99.90;;;;;;5029663;28;20060;-30
2023/09/22 03:59:05;;;;;;;0.88;0.52;;;14.90;99.90;;;;;;5026378;28;20820;-30
2023/09/22 04:01:32;;;;;;;0.73;0.73;;;14.90;99.90;;;;;;5034776;28;20098;-30
2023/09/22 04:03:57;;;;;;;2.55;0.95;;;14.80;99.90;;;;;;5046413;28;20040;-39
2023/09/22 04:06:23;;;;;;;2.20;0.98;;;14.90;99.90;;;;;;5042913;28;20021;-41
2023/09/22 04:08:49;;;;;;;3.45;0.90;;;14.90;99.90;;;;;;5045691;28;20049;-41
2023/09/22 04:11:14;;;;;;;0.70;0.70;;;14.90;99.90;;;;;;5042212;28;20021;-40
2023/09/22 04:13:40;;;;;;;0.70;0.70;;;14.90;99.90;;;;;;5044867;28;20348;-40
2023/09/22 04:16:06;;;;;;;1.60;0.90;;;14.80;99.90;;;;;;5043765;28;20029;-41
2023/09/22 04:18:32;;;;;;;0.70;0.70;;;14.90;99.90;;;;;;5043696;28;20048;-40
2023/09/22 04:21:01;;;;;;;0.70;0.70;;;14.80;99.90;;;;;;5043659;28;20025;-38
2023/09/22 04:23:27;;;;;;;0.95;0.95;;;14.80;99.90;;;;;;5043344;28;20079;-36
2023/09/22 04:25:54;;;;;;;0.60;0.60;;;14.80;99.90;;;;;;5042868;28;20036;-40
2023/09/22 04:28:23;;;;;;;1.20;1.10;;;14.80;99.90;;;;;;5043612;28;20033;-38
2023/09/22 04:30:49;;;;;;;1.95;1.17;;;14.70;99.90;;;;;;5046392;28;20039;-41
2023/09/22 04:33:15;;;;;;;0.88;0.77;;;14.70;99.90;;;;;;5044327;28;20566;-40
2023/09/22 04:35:41;;;;;;;0.90;0.73;;;14.80;99.90;;;;;;5046503;28;20033;-41
2023/09/22 04:38:08;;;;;;;1.02;0.70;;;14.70;99.90;;;;;;5045729;28;20053;-40
2023/09/22 04:40:36;;;;;;;0.80;0.70;;;14.70;99.90;;;;;;5049027;28;20758;-41
2023/09/22 04:43:03;;;;;;;1.75;0.80;;;14.70;99.90;;;;;;5046060;28;20029;-41
2023/09/22 04:45:29;;;;;;;0.68;0.60;;;14.70;99.90;;;;;;5048946;28;20413;-32
2023/09/22 04:47:55;;;;;;;1.13;0.77;;;14.60;99.90;;;;;;5049478;28;20324;-34
2023/09/22 04:50:21;;;;;;;1.75;0.80;;;14.60;99.90;;;;;;5048177;28;20028;-32
2023/09/22 04:52:49;;;;;;;0.70;0.70;;;14.60;99.90;;;;;;5048350;28;20039;-32
2023/09/22 04:55:16;;;;;;;1.40;0.87;;;14.50;99.90;;;;;;5044406;28;20047;-32
2023/09/22 04:57:42;;;;;;;3.10;0.80;;;14.50;99.90;;;;;;5046267;28;20445;-34
2023/09/22 05:00:09;;;;;;;0.98;0.73;;;14.50;99.90;;;;;;5046017;28;20045;-33
2023/09/22 05:02:35;;;;;;;1.67;0.90;;;14.50;99.90;;;;;;5043730;28;20052;-34
2023/09/22 05:05:01;;;;;;;1.23;1.05;;;14.50;99.90;;;;;;5046150;28;20033;-36
2023/09/22 05:07:28;;;;;;;4.55;1.10;;;14.50;99.90;;;;;;5044871;28;20061;-34
2023/09/22 05:09:53;;;;;;;1.10;0.70;;;14.50;99.90;;;;;;5047584;28;20108;-36
2023/09/22 05:12:19;;;;;;;0.70;0.70;;;14.50;99.90;;;;;;5042706;28;20133;-33
2023/09/22 05:14:45;;;;;;;2.15;1.00;;;14.50;99.90;;;;;;5044311;28;20090;-32
2023/09/22 05:17:11;;;;;;;1.65;0.95;;;14.40;99.90;;;;;;5045177;28;20382;-35
2023/09/22 05:19:36;;;;;;;0.50;0.50;;;14.40;99.90;;;;;;5044982;28;20021;-33
2023/09/22 05:22:03;;;;;;;0.80;0.80;;;14.40;99.90;;;;;;5045426;28;20473;-35
2023/09/22 05:24:29;;;;;;;2.05;0.77;;;14.40;99.90;;;;;;5044095;28;20060;-34
2023/09/22 05:26:54;;;;;;;0.80;0.80;;;14.40;99.90;;;;;;5046637;28;20061;-31
2023/09/22 05:29:20;;;;;;;0.80;0.80;;;14.30;99.90;;;;;;5043713;28;20032;-30
2023/09/22 05:31:45;;;;;;;1.00;0.70;;;14.40;99.90;;;;;;5045393;28;20128;-32
2023/09/22 05:34:11;;;;;;;1.73;1.00;;;14.40;99.90;;;;;;5080515;28;20037;-36
2023/09/22 05:36:37;;;;;;;2.35;0.75;;;14.30;99.90;;;;;;5053908;28;20077;-32
2023/09/22 05:39:06;;;;;;;2.05;1.38;;;14.30;99.90;;;;;;5046450;28;20029;-34
2023/09/22 05:41:31;;;;;;;2.13;1.00;;;14.30;99.90;;;;;;5048133;28;20028;-33
2023/09/22 05:43:57;;;;;;;1.77;0.90;;;14.30;99.90;;;;;;5045127;28;20057;-33
2023/09/22 05:46:23;;;;;;;0.95;0.95;;;14.20;99.90;;;;;;5052460;28;20021;-33
2023/09/22 05:48:49;;;;;;;1.58;0.90;;;14.20;99.90;;;;;;5050416;28;20033;-34
2023/09/22 05:51:15;;;;;;;1.70;0.80;;;14.20;99.90;;;;;;5062576;28;20398;-33
2023/09/22 05:53:41;;;;;;;1.75;0.85;;;14.20;99.90;;;;;;5047535;28;20088;-31
2023/09/22 05:56:08;;;;;;;0.73;0.73;;;14.10;99.90;;;;;;5048435;28;20040;-31
2023/09/22 05:58:38;;;;;;;1.27;0.87;;;14.20;99.90;;;;;;5049394;28;20033;-33
2023/09/22 06:01:06;;;;;;;0.68;0.68;;;14.20;99.90;;;;;;5045829;28;20268;-30
2023/09/22 06:03:33;;;;;;;;;;;14.10;99.90;;;;;;5049943;28;20056;-34
2023/09/22 06:05:59;;;;;;;1.40;0.75;;;14.10;99.90;;;;;;5045363;28;19909;-31
2023/09/22 06:08:24;;;;;;;2.10;0.90;;;14.10;99.90;;;;;;5047966;28;20020;-31
2023/09/22 06:10:50;;;;;;;1.83;0.90;;;14.10;99.90;;;;;;5049225;28;20039;-30
2023/09/22 06:13:16;;;;;;;1.55;0.95;;;14.10;99.90;;;;;;5048937;28;20039;-31
2023/09/22 06:15:41;;;;;;;1.05;0.70;;;14.10;99.90;;;;;;5044852;28;20036;-30
2023/09/22 06:18:08;;;;;;;2.78;0.93;;;14.10;99.90;;;;;;5046456;28;20040;-32
2023/09/22 06:20:33;;;;;;;0.93;0.80;;;14.10;99.90;;;;;;5047286;28;20064;-30
2023/09/22 06:22:59;;;;;;;1.35;0.80;;;13.90;99.90;;;;;;5050265;28;20025;-31
2023/09/22 06:25:28;;;;;;;1.00;0.88;;;14.00;99.90;;;;;;5044401;28;20029;-30
2023/09/22 06:27:54;;;;;;;0.70;0.70;;;14.00;99.90;;;;;;5048214;28;20433;-31
2023/09/22 06:30:23;;;;;;;0.80;0.80;;;14.00;99.90;;;;;;5047616;28;20119;-30
2023/09/22 06:32:48;;;;;;;0.73;0.73;;;14.00;99.90;;;;;;5044500;28;20395;-33
2023/09/22 06:35:14;;;;;;;1.00;0.73;;;14.00;99.90;;;;;;5046598;28;20040;-33
2023/09/22 06:37:41;;;;;;;1.80;0.70;;;13.90;99.90;;;;;;5044612;28;20064;-31
2023/09/22 06:40:11;;;;;;;1.65;0.65;;;13.90;99.90;;;;;;5050424;28;20442;-30
2023/09/22 06:42:41;;;;;;;2.38;0.70;;;14.00;99.90;;;;;;5046786;28;20386;-31
2023/09/22 06:45:11;;;;;;;1.42;0.70;;;14.00;99.90;;;;;;5043741;28;20555;-37
2023/09/22 06:47:41;;;;;;;2.65;0.82;;;14.00;99.90;;;;;;5045077;28;20082;-35
2023/09/22 06:50:09;;;;;;;0.77;0.63;;;13.90;99.90;;;;;;5047484;28;20486;-33
2023/09/22 06:52:41;;;;;;;1.42;0.60;;;13.80;99.90;;;;;;5045515;28;20026;-32
2023/09/22 06:55:13;;;;;;;1.50;1.40;;;13.90;99.90;;;;;;5044487;28;20513;-32
2023/09/22 06:57:42;;;;;;;0.63;0.63;;;13.90;99.90;;;;;;5039554;28;20017;-34
2023/09/22 07:00:15;;;;;;;0.88;0.88;;;13.90;99.90;;;;;;5047325;28;20128;-33
2023/09/22 07:02:47;;;;;;;1.13;0.90;;;13.90;99.90;;;;;;5041365;28;20055;-33
2023/09/22 07:05:16;;;;;;;0.77;0.70;;;13.90;99.90;;;;;;5043943;28;20136;-32
2023/09/22 07:07:42;;;;;;;0.88;0.57;;;13.80;99.90;;;;;;5048004;28;20025;-33
2023/09/22 07:10:11;;;;;;;0.82;0.68;;;13.90;99.90;;;;;;5044208;28;20112;-33
2023/09/22 07:12:41;;;;;;;1.88;0.90;;;13.90;99.90;;;;;;5050390;28;20036;-35
2023/09/22 07:15:07;;;;;;;2.20;0.98;;;13.90;99.90;;;;;;5043690;28;20036;-32
2023/09/22 07:17:33;;;;;;;1.80;0.90;;;14.00;99.90;;;;;;5046593;28;20025;-34
2023/09/22 07:20:01;;;;;;;1.65;1.00;;;14.10;99.90;;;;;;5047467;28;20017;-35
2023/09/22 07:22:29;;;;;;;0.70;0.70;;;14.00;99.90;;;;;;5044962;28;20025;-33
2023/09/22 07:24:55;;;;;;;1.55;0.80;;;14.00;99.90;;;;;;5045374;28;20028;-35
2023/09/22 07:27:23;;;;;;;0.95;0.70;;;14.00;99.90;;;;;;5045288;28;20383;-34
2023/09/22 07:29:50;;;;;;;1.45;0.80;;;14.00;99.90;;;;;;5045140;28;20029;-33
2023/09/22 07:32:16;;;;;;;0.98;0.80;;;14.10;99.90;;;;;;5044127;28;20551;-33
2023/09/22 07:34:42;;;;;;;1.25;0.63;;;14.00;99.90;;;;;;5042252;28;20032;-33
2023/09/22 07:37:11;;;;;;;1.25;0.77;;;14.10;99.90;;;;;;5044896;28;20391;-34
2023/09/22 07:39:37;;;;;;;1.52;1.10;;;14.00;99.90;;;;;;5045516;28;20029;-33
2023/09/22 07:42:03;;;;;;;1.33;0.80;;;14.00;99.90;;;;;;5046475;28;20036;-34
2023/09/22 07:44:30;;;;;;;0.88;0.70;;;14.10;99.90;;;;;;5045221;28;20099;-32
2023/09/22 07:46:58;;;;;;;1.05;0.80;;;14.10;99.90;;;;;;5047647;28;20086;-34
2023/09/22 07:49:25;;;;;;;0.75;0.75;;;14.20;99.90;;;;;;5045207;28;20398;-32
2023/09/22 07:51:51;;;;;;;1.63;1.02;;;14.20;99.90;;;;;;5048659;28;20521;-33
2023/09/22 07:54:18;;;;;;;1.92;0.90;;;14.20;99.90;;;;;;5044512;28;20087;-40
2023/09/22 07:56:46;;;;;;;0.70;0.70;;;14.20;99.90;;;;;;5047479;28;20482;-40
2023/09/22 07:59:13;;;;;;;0.80;0.80;;;14.10;99.90;;;;;;5041869;28;20577;-41
2023/09/22 08:01:42;;;;;;;0.73;0.73;;;14.10;99.90;;;;;;5044461;28;20032;-42
2023/09/22 08:04:09;;;;;;;1.35;0.70;;;14.20;99.90;;;;;;5044388;28;20040;-41
2023/09/22 08:06:34;;;;;;;1.08;0.80;;;14.20;99.90;;;;;;5049326;28;20555;-39
2023/09/22 08:09:00;;;;;;;0.70;0.70;;;14.20;99.90;;;;;;5041272;28;20109;-40
2023/09/22 08:11:26;;;;;;;1.25;0.80;;;14.20;99.90;;;;;;5048365;28;20092;-39
2023/09/22 08:13:54;;;;;;;0.75;0.70;;;14.20;99.90;;;;;;5046643;28;20025;-40
2023/09/22 08:16:20;;;;;;;1.75;0.98;;;14.20;99.90;;;;;;5048338;28;20086;-34
2023/09/22 08:18:46;;;;;;;1.90;1.13;;;14.30;99.90;;;;;;5047767;28;20571;-36
2023/09/22 08:21:12;;;;;;;4.18;0.80;;;14.20;99.90;;;;;;5050697;28;20386;-39
2023/09/22 08:23:37;;;;;;;2.30;0.90;;;14.20;99.90;;;;;;5050402;28;20017;-39
2023/09/22 08:26:08;;;;;;;0.95;0.90;;;14.20;99.90;;;;;;5051670;28;20044;-40
2023/09/22 08:28:34;;;;;;;2.38;0.88;;;14.20;99.90;;;;;;5049753;28;20852;-39
2023/09/22 08:31:00;;;;;;;1.17;1.00;;;14.20;99.90;;;;;;5050929;28;20066;-39
2023/09/22 08:33:26;;;;;;;1.55;0.82;;;14.20;99.90;;;;;;5045085;28;20040;-40
2023/09/22 08:35:52;;;;;;;3.08;1.00;;;14.20;99.90;;;;;;5045913;28;20025;-40
2023/09/22 08:38:18;;;;;;;0.80;0.80;;;14.20;99.90;;;;;;5047115;28;20044;-40
2023/09/22 08:40:47;;;;;;;0.70;0.70;;;14.20;99.90;;;;;;5042928;28;20386;-40
2023/09/22 08:43:13;;;;;;;1.60;0.98;;;14.20;99.90;;;;;;5044934;28;20027;-39
2023/09/22 08:45:38;;;;;;;1.98;1.00;;;14.20;99.90;;;;;;5046227;28;20414;-40
2023/09/22 08:48:04;;;;;;;1.58;0.90;;;14.10;99.90;;;;;;5050811;28;20029;-38
2023/09/22 08:50:31;;;;;;;1.95;0.90;;;14.10;99.90;;;;;;5047738;28;20032;-39
2023/09/22 08:52:57;;;;;;;1.17;0.80;;;14.10;99.90;;;;;;5049474;28;20036;-34
2023/09/22 08:55:23;;;;;;;2.33;0.85;;;14.10;99.90;;;;;;5048668;28;20032;-39
2023/09/22 08:57:50;;;;;;;1.38;0.80;;;14.10;99.90;;;;;;5051118;28;20013;-40
2023/09/22 09:00:20;;;;;;;2.75;1.00;;;14.10;99.90;;;;;;5045876;28;20017;-38
2023/09/22 09:02:54;;;;;;;1.63;1.00;;;14.10;99.90;;;;;;5044608;28;20037;-41
2023/09/22 09:05:27;;;;;;;1.42;0.77;;;14.10;99.90;;;;;;5043932;28;20086;-32
2023/09/22 09:07:53;;;;;;;0.95;0.73;;;14.20;99.90;;;;;;5047411;28;20036;-33
2023/09/22 09:10:34;;;;;;;1.42;0.93;;;14.20;99.90;;;;;;5046245;28;20033;-33
2023/09/22 09:13:01;;;;;;;2.47;0.70;;;14.10;99.90;;;;;;5044611;28;20028;-33
2023/09/22 09:15:43;;;;;;;1.63;1.08;;;14.20;99.90;;;;;;5046061;28;20383;-37
2023/09/22 09:18:11;;;;;;;2.55;0.90;;;14.20;99.90;;;;;;5043109;28;20406;-33
2023/09/22 09:20:40;;;;;;;1.25;1.05;;;14.20;99.90;;;;;;5046028;28;20021;-33
2023/09/22 09:23:19;;;;;;;2.17;1.30;;;14.20;99.90;;;;;;5036103;28;20052;-33
2023/09/22 09:25:50;;;;;;;1.13;1.02;;;14.20;99.90;;;;;;5042005;28;20027;-30
2023/09/22 09:28:17;;;;;;;1.98;1.08;;;14.20;99.90;;;;;;5048690;28;20148;-32
2023/09/22 09:30:57;;;;;;;1.10;0.90;;;14.20;99.90;;;;;;5050782;28;20885;-32
2023/09/22 09:33:31;;;;;;;2.83;1.20;;;14.20;99.90;;;;;;5046475;28;20020;-30
2023/09/22 09:35:57;;;;;;;0.70;0.70;;;14.10;99.90;;;;;;5047351;28;20390;-30
2023/09/22 09:38:26;;;;;;;1.42;1.25;;;14.10;99.90;;;;;;5045579;28;20029;-31
2023/09/22 09:40:52;;;;;;;1.92;0.95;;;14.10;99.90;;;;;;5048627;28;20441;-30
2023/09/22 09:43:18;;;;;;;1.48;0.80;;;14.10;99.90;;;;;;5046664;28;20733;-31
2023/09/22 09:45:43;;;;;;;1.10;1.00;;;14.00;99.90;;;;;;5050499;28;20047;-31
2023/09/22 09:48:17;;;;;;;0.98;0.73;;;14.10;99.90;;;;;;5048201;28;20025;-33
2023/09/22 09:50:48;;;;;;;1.48;1.10;;;14.10;99.90;;;;;;5053119;28;20433;-34
2023/09/22 09:53:21;;;;;;;1.63;0.80;;;14.10;99.90;;;;;;5046287;28;20522;-30
2023/09/22 09:55:49;;;;;;;1.65;0.80;;;14.00;99.90;;;;;;5049268;28;20021;-30
2023/09/22 09:58:16;;;;;;;1.15;0.88;;;14.00;99.90;;;;;;5048469;28;20091;-31
2023/09/22 10:00:43;;;;;;;0.82;0.80;;;14.00;99.90;;;;;;5045674;28;20048;-29
2023/09/22 10:03:12;;;;;;;1.02;0.90;;;14.00;99.90;;;;;;5049387;28;20120;-31
2023/09/22 10:05:39;;;;;;;1.58;0.70;;;14.00;99.90;;;;;;5050572;28;20037;-32
2023/09/22 10:08:06;;;;;;;1.17;0.70;;;14.00;99.90;;;;;;5049046;28;20186;-30
2023/09/22 10:10:35;;;;;;;0.73;0.73;;;14.00;99.90;;;;;;5045428;28;20032;-32
2023/09/22 10:13:00;;;;;;;;;;;14.00;99.90;;;;;;5044284;28;20036;-32
2023/09/22 10:15:52;;;;;;;1.65;0.93;;;13.90;99.90;;;;;;5044251;28;19925;-36
2023/09/22 10:18:19;;;;;;;0.73;0.60;;;13.90;99.90;;;;;;5048730;28;20596;-39
2023/09/22 10:20:45;;;;;;;1.42;0.82;;;13.90;99.90;;;;;;5051669;28;20033;-40
2023/09/22 10:23:22;;;;;;;0.75;0.70;;;13.80;99.90;;;;;;5047905;28;20032;-36
2023/09/22 10:26:17;;;;;;;0.73;0.70;;;13.80;99.90;;;;;;5044150;28;20037;-40
2023/09/22 10:28:43;;;;;;;2.47;0.82;;;13.70;99.90;;;;;;5044769;28;20075;-41
2023/09/22 10:31:09;;;;;;;1.80;0.63;;;13.70;99.90;;;;;;5049557;28;20410;-36
2023/09/22 10:33:35;;;;;;;1.40;0.70;;;13.70;99.90;;;;;;5048080;28;20045;-39
2023/09/22 10:36:01;;;;;;;1.65;0.80;;;13.70;99.90;;;;;;5050270;28;20025;-40
2023/09/22 10:38:27;;;;;;;0.98;0.90;;;13.70;99.90;;;;;;5045587;28;20032;-39
2023/09/22 10:41:02;;;;;;;0.82;0.80;;;13.80;99.90;;;;;;5050183;28;20498;-38
2023/09/22 10:43:29;;;;;;;1.55;0.80;;;13.80;99.90;;;;;;5045924;28;20025;-40
2023/09/22 10:45:56;;;;;;;2.38;0.88;;;13.80;99.90;;;;;;5045756;28;20780;-37
2023/09/22 10:48:22;;;;;;;1.30;1.20;;;13.80;99.90;;;;;;5049728;28;20036;-36
2023/09/22 10:50:52;;;;;;;1.08;0.77;;;13.70;99.90;;;;;;5046162;28;20047;-41
2023/09/22 10:53:18;;;;;;;1.05;0.70;;;13.70;99.90;;;;;;5048398;28;20702;-40
2023/09/22 10:55:45;;;;;;;0.93;0.55;;;13.70;99.90;;;;;;5046189;28;20035;-40
2023/09/22 10:58:12;;;;;;;0.90;0.90;;;13.70;99.90;;;;;;5045918;28;20025;-37
2023/09/22 11:00:40;;;;;;;2.17;0.68;;;13.70;99.90;;;;;;5045439;28;20025;-38
2023/09/22 11:03:06;;;;;;;;;;;13.70;99.90;;;;;;5046419;28;20419;-39
2023/09/22 11:05:31;;;;;;;0.70;0.70;;;13.70;99.90;;;;;;5046502;28;19944;-39
2023/09/22 11:07:57;;;;;;;1.83;0.90;;;13.70;99.90;;;;;;5048545;28;20029;-38
2023/09/22 11:10:23;;;;;;;0.82;0.80;;;13.70;99.90;;;;;;5046811;28;20108;-41
2023/09/22 11:12:54;;;;;;;0.65;0.65;;;13.70;99.90;;;;;;5048043;28;20107;-41
2023/09/22 11:15:21;;;;;;;1.27;0.70;;;13.70;99.90;;;;;;5045766;28;20025;-40
2023/09/22 11:17:47;;;;;;;0.88;0.88;;;13.70;99.90;;;;;;5046797;28;20029;-41
2023/09/22 11:20:30;;;;;;;1.27;1.10;;;13.70;99.90;;;;;;5046336;28;20029;-41
2023/09/22 11:22:57;;;;;;;0.90;0.50;;;13.60;99.90;;;;;;5045260;28;20025;-38
2023/09/22 11:25:24;;;;;;;0.52;0.52;;;13.60;99.90;;;;;;5043334;28;20035;-33
2023/09/22 11:27:53;;;;;;;1.20;0.63;;;13.60;99.90;;;;;;5033471;28;20025;-35
2023/09/22 11:30:27;;;;;;;1.55;0.60;;;13.60;99.90;;;;;;5041953;28;20120;-34
2023/09/22 11:32:54;;;;;;;0.70;0.70;;;13.60;99.90;;;;;;5043457;28;20029;-34
2023/09/22 11:35:42;;;;;;;0.98;0.65;;;13.50;99.90;;;;;;5044787;28;20029;-41
2023/09/22 11:38:31;;;;;;;0.77;0.60;;;13.50;99.90;;;;;;5049161;28;20510;-38
2023/09/22 11:41:14;;;;;;;0.50;0.50;;;13.60;99.90;;;;;;5047813;28;20474;-40
2023/09/22 11:43:44;;;;;;;1.30;0.52;;;13.60;99.90;;;;;;5043728;28;20091;-35
2023/09/22 11:46:27;;;;;;;0.40;0.40;;;13.60;99.90;;;;;;5040539;28;20429;-34
2023/09/22 11:48:54;;;;;;;1.08;0.30;;;13.60;99.90;;;;;;5049014;28;20382;-33
2023/09/22 11:51:20;;;;;;;0.60;0.60;;;13.50;99.90;;;;;;5045638;28;20033;-33
2023/09/22 11:53:47;;;;;;;0.52;0.43;;;13.50;99.90;;;;;;5046184;28;20040;-33
2023/09/22 11:56:13;;;;;;;0.60;0.40;;;13.50;99.90;;;;;;5046527;28;20033;-34
2023/09/22 11:58:39;;;;;;;0.98;0.40;;;13.50;99.90;;;;;;5047746;28;20527;-35
2023/09/22 12:01:05;;;;;;;0.80;0.60;;;13.50;99.90;;;;;;5061706;28;20068;-37
2023/09/22 12:03:34;;;;;;;1.02;0.50;;;13.60;99.90;;;;;;5052296;28;20050;-34
2023/09/22 12:06:02;;;;;;;2.05;0.63;;;13.60;99.90;;;;;;5048447;28;20048;-36
2023/09/22 12:08:28;;;;;;;0.50;0.50;;;13.60;99.90;;;;;;5051630;28;20036;-33
2023/09/22 12:10:54;;;;;;;1.55;0.40;;;13.70;99.90;;;;;;5048691;28;20348;-36
2023/09/22 12:13:20;;;;;;;0.47;0.40;;;13.80;99.90;;;;;;5047006;28;20033;-34
2023/09/22 12:15:45;;;;;;;0.85;0.50;;;13.70;99.90;;;;;;5048569;28;20024;-34
2023/09/22 12:18:11;;;;;;;0.98;0.60;;;13.80;99.90;;;;;;5047437;28;20085;-35
2023/09/22 12:20:36;;;;;;;2.45;0.75;;;13.80;99.90;;;;;;5045263;28;20033;-38
2023/09/22 12:23:02;;;;;;;0.95;0.60;;;13.90;99.90;;;;;;5043187;28;20465;-33
2023/09/22 12:25:28;;;;;;;0.70;0.70;;;13.90;99.90;;;;;;5046325;28;20039;-35
2023/09/22 12:27:53;;;;;;;0.63;0.63;;;13.70;99.90;;;;;;5045671;28;20092;-32
2023/09/22 12:30:19;;;;;;;0.95;0.70;;;13.70;99.90;;;;;;5046171;28;20056;-31
2023/09/22 12:32:45;;;;;;;0.85;0.57;;;13.70;99.90;;;;;;5046033;28;20033;-32
2023/09/22 12:35:11;;;;;;;0.50;0.50;;;13.70;99.90;;;;;;5063336;28;20546;-36
2023/09/22 12:37:36;;;;;;;0.40;0.40;;;13.60;99.90;;;;;;5048406;28;20113;-32
2023/09/22 12:40:04;;;;;;;0.65;0.52;;;13.60;99.90;;;;;;5045287;28;20475;-33
2023/09/22 12:42:32;;;;;;;0.70;0.70;;;13.60;99.90;;;;;;5046935;28;20082;-33
2023/09/22 12:44:58;;;;;;;0.73;0.73;;;13.60;99.90;;;;;;5045980;28;20052;-32
2023/09/22 12:47:24;;;;;;;1.58;0.60;;;13.50;99.90;;;;;;5045655;28;20127;-32
2023/09/22 12:49:50;;;;;;;0.70;0.52;;;13.60;99.90;;;;;;5055875;28;20120;-30